Time;durP1;ratioP1;P1;durP2;ratioP2;P2;SDS_P1;SDS_P2;PMS_P1;PMS_P2;Temp;Humidity;BMP_temperature;BMP_pressure;BME280_temperature;BME280_humidity;BME280_pressure;Samples;Min_cycle;Max_cycle;Signal;HPM_P1;HPM_P2
2022/09/08 00:02:13;;;;;;;22.38;20.13;;;17.30;99.90;;;;;;5022998;28;20049;-65
2022/09/08 00:04:39;;;;;;;23.23;20.92;;;17.30;99.90;;;;;;5022153;28;20756;-65
2022/09/08 00:07:07;;;;;;;24.80;22.50;;;17.30;99.90;;;;;;5033778;28;20045;-66
2022/09/08 00:09:33;;;;;;;24.35;21.92;;;17.30;99.90;;;;;;5023008;28;20091;-65
2022/09/08 00:12:01;;;;;;;24.60;22.17;;;17.30;99.90;;;;;;5023266;28;20092;-65
2022/09/08 00:14:28;;;;;;;25.15;22.80;;;17.30;99.90;;;;;;5021166;28;20477;-65
2022/09/08 00:16:54;;;;;;;29.35;26.65;;;17.20;99.90;;;;;;5022708;28;20049;-65
2022/09/08 00:19:20;;;;;;;30.25;27.13;;;17.10;99.90;;;;;;5022830;28;20499;-65
2022/09/08 00:21:46;;;;;;;29.83;26.92;;;17.00;99.90;;;;;;5022751;28;20104;-65
2022/09/08 00:24:11;;;;;;;31.05;28.13;;;16.90;99.90;;;;;;5022433;28;20033;-64
2022/09/08 00:26:37;;;;;;;30.17;27.35;;;16.90;99.90;;;;;;5022729;28;20058;-65
2022/09/08 00:29:03;;;;;;;32.28;29.05;;;17.00;99.90;;;;;;5022998;28;20040;-65
2022/09/08 00:31:29;;;;;;;31.63;28.63;;;16.90;99.90;;;;;;5022248;28;20076;-64
2022/09/08 00:33:54;;;;;;;33.53;30.23;;;17.00;99.90;;;;;;5022332;28;20484;-64
2022/09/08 00:36:20;;;;;;;34.22;30.70;;;17.00;99.90;;;;;;5023407;28;20060;-65
2022/09/08 00:38:51;;;;;;;31.02;28.02;;;17.00;99.90;;;;;;5022749;28;20037;-65
2022/09/08 00:41:22;;;;;;;34.63;31.35;;;17.00;99.90;;;;;;5022587;28;20180;-64
2022/09/08 00:43:59;;;;;;;32.72;29.65;;;16.90;99.90;;;;;;5022876;28;20091;-65
2022/09/08 00:46:30;;;;;;;33.40;30.23;;;16.60;99.90;;;;;;5022209;28;20143;-65
2022/09/08 00:49:16;;;;;;;34.10;30.60;;;16.90;99.90;;;;;;5023004;28;20053;-65
2022/09/08 00:51:46;;;;;;;35.30;32.00;;;16.80;99.90;;;;;;5025791;28;20594;-65
2022/09/08 00:54:15;;;;;;;35.47;32.08;;;16.80;99.90;;;;;;5026479;28;20054;-65
2022/09/08 00:56:41;;;;;;;34.58;31.17;;;16.70;99.90;;;;;;5025991;28;20056;-64
2022/09/08 00:59:08;;;;;;;37.08;33.20;;;16.80;99.90;;;;;;5024945;28;20045;-65
2022/09/08 01:01:34;;;;;;;37.65;33.83;;;16.80;99.90;;;;;;5026253;28;20442;-65
2022/09/08 01:04:02;;;;;;;37.70;33.88;;;16.80;99.90;;;;;;5025884;28;20404;-66
2022/09/08 01:12:43;;;;;;;36.38;32.88;;;16.90;99.90;;;;;;5025963;28;20107;-64
2022/09/08 01:15:15;;;;;;;37.45;33.85;;;16.80;99.90;;;;;;5025038;28;20128;-65
2022/09/08 01:17:41;;;;;;;36.42;32.83;;;16.80;99.90;;;;;;5025194;28;20385;-64
2022/09/08 01:20:08;;;;;;;36.53;33.05;;;16.80;99.90;;;;;;5026125;28;20037;-64
2022/09/08 01:23:22;;;;;;;34.70;31.30;;;16.70;99.90;;;;;;5023808;28;20057;-65
2022/09/08 01:26:27;;;;;;;38.30;34.53;;;16.80;99.90;;;;;;5026166;28;20049;-65
2022/09/08 01:28:58;;;;;;;;;;;16.80;99.90;;;;;;5010473;28;20058;-65
2022/09/08 01:31:24;;;;;;;37.83;34.22;;;16.80;99.90;;;;;;5025540;28;19921;-64
2022/09/08 01:33:51;;;;;;;40.80;36.72;;;16.80;99.90;;;;;;5025429;28;20400;-64
2022/09/08 01:36:18;;;;;;;39.17;35.47;;;16.80;99.90;;;;;;5025105;28;20067;-64
2022/09/08 01:38:44;;;;;;;38.70;34.80;;;16.80;99.90;;;;;;5025611;28;20060;-65
2022/09/08 01:41:10;;;;;;;38.05;33.90;;;16.80;99.90;;;;;;5025541;28;20045;-65
2022/09/08 01:43:35;;;;;;;39.25;35.47;;;16.80;99.90;;;;;;5024970;28;20089;-64
2022/09/08 01:46:01;;;;;;;39.38;35.38;;;16.80;99.90;;;;;;5025696;28;20122;-64
2022/09/08 01:48:27;;;;;;;40.53;36.53;;;16.80;99.90;;;;;;5024582;28;20097;-64
2022/09/08 01:50:58;;;;;;;39.75;35.75;;;16.90;99.90;;;;;;5025770;28;20055;-65
2022/09/08 01:53:24;;;;;;;38.55;34.75;;;16.90;99.90;;;;;;5025263;28;20067;-64
2022/09/08 01:55:49;;;;;;;37.38;33.72;;;16.80;99.90;;;;;;5025827;28;20584;-64
2022/09/08 01:58:15;;;;;;;37.67;33.97;;;16.80;99.90;;;;;;5025419;28;20426;-64
2022/09/08 02:00:41;;;;;;;39.55;35.63;;;16.80;99.90;;;;;;5024184;28;20080;-64
2022/09/08 02:03:09;;;;;;;41.17;37.13;;;16.80;99.90;;;;;;5024488;28;20080;-64
2022/09/08 02:05:39;;;;;;;40.00;35.97;;;16.90;99.90;;;;;;5027292;28;20041;-64
2022/09/08 02:08:05;;;;;;;41.08;37.03;;;16.80;99.90;;;;;;5033443;28;20060;-64
2022/09/08 02:10:31;;;;;;;42.78;38.60;;;16.80;99.90;;;;;;5024867;28;20665;-64
2022/09/08 02:12:57;;;;;;;38.88;35.08;;;16.90;99.90;;;;;;5023725;28;20133;-64
2022/09/08 02:15:23;;;;;;;42.45;38.17;;;16.90;99.90;;;;;;5024292;28;20444;-64
2022/09/08 02:17:49;;;;;;;44.72;39.95;;;16.80;99.90;;;;;;5024016;28;20041;-64
2022/09/08 02:20:15;;;;;;;42.20;38.03;;;16.70;99.90;;;;;;5029219;28;20116;-64
2022/09/08 02:22:41;;;;;;;39.75;35.90;;;16.70;99.90;;;;;;5044484;28;20051;-64
2022/09/08 02:25:07;;;;;;;40.20;36.13;;;16.70;99.90;;;;;;5044318;28;20041;-64
2022/09/08 02:27:33;;;;;;;44.33;39.92;;;16.70;99.90;;;;;;5044552;28;20043;-64
2022/09/08 02:29:59;;;;;;;42.72;38.42;;;16.80;99.90;;;;;;5043197;28;20080;-64
2022/09/08 02:32:24;;;;;;;43.13;38.63;;;16.70;99.90;;;;;;5043186;28;20044;-64
2022/09/08 02:34:50;;;;;;;40.83;36.72;;;16.70;99.90;;;;;;5043803;28;20065;-64
2022/09/08 02:37:16;;;;;;;42.58;38.38;;;16.70;99.90;;;;;;5042966;28;20055;-64
2022/09/08 02:39:42;;;;;;;43.30;39.15;;;16.70;99.90;;;;;;5043793;28;20812;-64
2022/09/08 02:42:11;;;;;;;44.28;39.78;;;16.70;99.90;;;;;;5044083;28;20095;-64
2022/09/08 02:44:38;;;;;;;46.63;41.90;;;16.70;99.90;;;;;;5044064;28;20124;-64
2022/09/08 02:47:04;;;;;;;46.05;41.33;;;16.70;99.90;;;;;;5043330;28;20045;-64
2022/09/08 02:49:31;;;;;;;42.97;38.65;;;16.80;99.90;;;;;;5043679;28;20033;-64
2022/09/08 02:51:58;;;;;;;46.28;41.42;;;16.80;99.90;;;;;;5043110;28;20696;-65
2022/09/08 02:54:23;;;;;;;47.65;42.60;;;16.80;99.90;;;;;;5043849;28;20426;-64
2022/09/08 02:56:49;;;;;;;44.35;40.13;;;16.80;99.90;;;;;;5044178;28;20049;-65
2022/09/08 02:59:15;;;;;;;45.85;41.38;;;16.80;99.90;;;;;;5044055;28;20443;-65
2022/09/08 03:01:43;;;;;;;46.45;41.67;;;16.80;99.90;;;;;;5042271;28;20132;-64
2022/09/08 03:04:10;;;;;;;45.58;41.00;;;16.70;99.90;;;;;;5041545;28;20045;-65
2022/09/08 03:06:37;;;;;;;50.55;45.28;;;16.80;99.90;;;;;;5037446;28;20049;-64
2022/09/08 03:09:04;;;;;;;49.13;44.03;;;16.80;99.90;;;;;;5026523;28;20053;-64
2022/09/08 03:11:31;;;;;;;48.25;43.28;;;16.80;99.90;;;;;;5021694;28;20541;-64
2022/09/08 03:13:57;;;;;;;45.15;40.63;;;16.80;99.90;;;;;;5023669;28;20503;-65
2022/09/08 03:16:23;;;;;;;52.15;46.80;;;16.80;99.90;;;;;;5023750;28;20084;-64
2022/09/08 03:18:48;;;;;;;49.22;44.30;;;16.70;99.90;;;;;;5023451;28;20127;-65
2022/09/08 03:21:15;;;;;;;46.55;41.78;;;16.80;99.90;;;;;;5023531;28;20496;-65
2022/09/08 03:23:41;;;;;;;46.78;42.10;;;16.80;99.90;;;;;;5022075;28;20060;-64
2022/09/08 03:26:12;;;;;;;50.08;44.08;;;16.80;99.90;;;;;;5023788;28;20389;-64
2022/09/08 03:28:38;;;;;;;46.15;41.65;;;16.90;99.90;;;;;;5023016;28;20054;-64
2022/09/08 03:31:09;;;;;;;50.13;44.97;;;16.80;99.90;;;;;;5022549;28;20111;-64
2022/09/08 03:33:35;;;;;;;46.03;41.42;;;16.90;99.90;;;;;;5022685;28;20042;-65
2022/09/08 03:36:02;;;;;;;46.47;41.78;;;16.90;99.90;;;;;;5021458;28;20637;-64
2022/09/08 03:38:28;;;;;;;50.53;45.30;;;16.80;99.90;;;;;;5023553;28;20042;-64
2022/09/08 03:40:54;;;;;;;49.10;44.20;;;16.80;99.90;;;;;;5023571;28;20463;-65
2022/09/08 03:43:19;;;;;;;54.03;48.28;;;16.80;99.90;;;;;;5023141;28;20447;-64
2022/09/08 03:45:46;;;;;;;48.88;43.88;;;16.80;99.90;;;;;;5023179;28;20376;-65
2022/09/08 03:48:14;;;;;;;50.92;45.67;;;16.80;99.90;;;;;;5022840;28;20671;-65
2022/09/08 03:50:40;;;;;;;52.80;47.30;;;16.80;99.90;;;;;;5022991;28;20048;-64
2022/09/08 03:53:06;;;;;;;52.92;47.42;;;16.90;99.90;;;;;;5022834;28;20037;-64
2022/09/08 03:55:32;;;;;;;51.58;46.20;;;16.80;99.90;;;;;;5022850;28;20091;-63
2022/09/08 03:57:59;;;;;;;51.90;46.40;;;16.80;99.90;;;;;;5023522;28;20576;-64
2022/09/08 04:00:25;;;;;;;49.33;44.22;;;16.80;99.90;;;;;;5022474;28;20033;-64
2022/09/08 04:02:51;;;;;;;52.33;46.72;;;16.80;99.90;;;;;;5022898;28;20037;-64
2022/09/08 04:05:17;;;;;;;52.50;46.97;;;16.80;99.90;;;;;;5025278;28;20447;-64
2022/09/08 04:07:43;;;;;;;52.42;47.03;;;16.80;99.90;;;;;;5031395;28;20056;-65
2022/09/08 04:10:11;;;;;;;51.97;46.38;;;16.90;99.90;;;;;;5022779;28;20049;-63
2022/09/08 04:12:38;;;;;;;50.75;45.45;;;16.90;99.90;;;;;;5022984;28;20049;-64
2022/09/08 04:15:05;;;;;;;54.17;48.47;;;16.90;99.90;;;;;;5021143;28;20397;-65
2022/09/08 04:17:31;;;;;;;52.67;47.20;;;16.80;99.90;;;;;;5022086;28;20045;-64
2022/09/08 04:19:56;;;;;;;49.83;44.58;;;16.80;99.90;;;;;;5023174;28;20377;-64
2022/09/08 04:22:23;;;;;;;49.97;44.92;;;16.80;99.90;;;;;;5022068;28;20103;-64
2022/09/08 04:24:50;;;;;;;53.00;47.67;;;16.90;99.90;;;;;;5025185;28;20120;-63
2022/09/08 04:27:17;;;;;;;51.65;46.33;;;16.90;99.90;;;;;;5027105;28;20484;-64
2022/09/08 04:29:43;;;;;;;49.28;44.17;;;16.80;99.90;;;;;;5026807;28;20041;-64
2022/09/08 04:32:09;;;;;;;53.00;47.50;;;16.80;99.90;;;;;;5025638;28;20068;-64
2022/09/08 04:34:35;;;;;;;51.75;46.60;;;16.80;99.90;;;;;;5026704;28;20037;-65
2022/09/08 04:37:02;;;;;;;53.22;47.65;;;16.90;99.90;;;;;;5026731;28;20129;-63
2022/09/08 04:39:27;;;;;;;53.75;48.28;;;16.80;99.90;;;;;;5026200;28;20049;-65
2022/09/08 04:41:54;;;;;;;51.15;45.95;;;16.80;99.90;;;;;;5026697;28;20042;-64
2022/09/08 04:44:20;;;;;;;53.85;48.33;;;16.80;99.90;;;;;;5027338;28;20041;-64
2022/09/08 04:46:47;;;;;;;57.78;50.15;;;16.80;99.90;;;;;;5025772;28;20405;-64
2022/09/08 04:49:12;;;;;;;55.42;49.70;;;16.80;99.90;;;;;;5025014;28;20758;-64
2022/09/08 04:51:39;;;;;;;55.03;49.30;;;16.80;99.90;;;;;;5026406;28;20300;-64
2022/09/08 04:54:05;;;;;;;53.50;48.05;;;16.80;99.90;;;;;;5026625;28;20120;-64
2022/09/08 04:56:32;;;;;;;55.78;50.08;;;16.80;99.90;;;;;;5025492;28;20092;-64
2022/09/08 04:59:00;;;;;;;55.05;49.35;;;16.80;99.90;;;;;;5026897;28;20077;-64
2022/09/08 05:01:31;;;;;;;51.35;45.97;;;16.80;99.90;;;;;;5025791;28;20108;-64
2022/09/08 05:04:00;;;;;;;55.72;49.78;;;16.80;99.90;;;;;;5024642;28;20090;-64
2022/09/08 05:06:26;;;;;;;57.17;51.05;;;16.90;99.90;;;;;;5032836;28;20045;-64
2022/09/08 05:08:55;;;;;;;54.10;48.38;;;16.90;99.90;;;;;;5030317;28;20128;-64
2022/09/08 05:11:23;;;;;;;55.85;49.92;;;16.80;99.90;;;;;;5024547;28;20049;-64
2022/09/08 05:13:50;;;;;;;52.53;47.03;;;16.80;99.90;;;;;;5026566;28;20407;-64
2022/09/08 05:16:18;;;;;;;56.70;50.88;;;16.80;99.90;;;;;;5026108;28;20049;-64
2022/09/08 05:18:57;;;;;;;55.40;49.60;;;16.80;99.90;;;;;;5024513;28;20120;-64
2022/09/08 05:21:24;;;;;;;55.45;49.78;;;16.80;99.90;;;;;;5026227;28;20049;-64
2022/09/08 05:23:52;;;;;;;54.20;48.58;;;16.80;99.90;;;;;;5026492;28;20760;-64
2022/09/08 05:26:19;;;;;;;56.17;50.28;;;16.90;99.90;;;;;;5024287;28;20053;-64
2022/09/08 05:28:45;;;;;;;54.38;48.53;;;16.90;99.90;;;;;;5025547;28;20041;-64
2022/09/08 05:31:17;;;;;;;54.22;48.63;;;16.90;99.90;;;;;;5026194;28;20091;-64
2022/09/08 05:33:43;;;;;;;53.80;47.97;;;16.90;99.90;;;;;;5023625;28;20622;-64
2022/09/08 05:36:18;;;;;;;56.67;49.28;;;16.90;99.90;;;;;;5024316;28;20045;-65
2022/09/08 05:38:44;;;;;;;54.45;48.63;;;16.80;99.90;;;;;;5025618;28;20072;-64
2022/09/08 05:41:11;;;;;;;55.22;49.45;;;16.80;99.90;;;;;;5023795;28;20085;-64
2022/09/08 05:43:37;;;;;;;56.70;50.63;;;16.80;99.90;;;;;;5025616;28;20050;-64
2022/09/08 05:46:04;;;;;;;58.05;51.95;;;16.70;99.90;;;;;;5024629;28;20454;-64
2022/09/08 05:48:30;;;;;;;58.17;52.08;;;16.80;99.90;;;;;;5024085;28;20038;-64
2022/09/08 05:50:57;;;;;;;61.65;55.05;;;16.80;99.90;;;;;;5025384;28;20064;-64
2022/09/08 05:53:22;;;;;;;55.28;49.47;;;16.80;99.90;;;;;;5025699;28;20088;-64
2022/09/08 05:56:00;;;;;;;54.92;49.22;;;16.80;99.90;;;;;;5025254;28;20077;-63
2022/09/08 05:58:27;;;;;;;60.63;53.28;;;16.80;99.90;;;;;;5023913;28;20397;-65
2022/09/08 06:01:02;;;;;;;58.65;52.45;;;16.80;99.90;;;;;;5025463;28;20064;-64
2022/09/08 06:03:27;;;;;;;56.00;50.25;;;16.90;99.90;;;;;;5024014;28;20128;-64
2022/09/08 06:05:54;;;;;;;57.53;51.42;;;16.90;99.90;;;;;;5028127;28;20149;-64
2022/09/08 06:08:21;;;;;;;52.88;47.33;;;16.90;99.90;;;;;;5033603;28;20046;-64
2022/09/08 06:10:53;;;;;;;52.72;47.25;;;17.00;99.90;;;;;;5023176;28;20041;-65
2022/09/08 06:13:23;;;;;;;59.03;52.83;;;17.00;99.90;;;;;;5025111;28;20364;-65
2022/09/08 06:15:49;;;;;;;60.60;54.10;;;16.90;99.90;;;;;;5025343;28;20048;-65
2022/09/08 06:18:16;;;;;;;61.13;54.50;;;16.90;99.90;;;;;;5023909;28;20037;-64
2022/09/08 06:20:43;;;;;;;59.78;53.47;;;17.00;99.90;;;;;;5024626;28;20056;-64
2022/09/08 06:23:08;;;;;;;57.25;51.25;;;16.90;99.90;;;;;;5024966;28;20048;-64
2022/09/08 06:25:45;;;;;;;56.00;50.08;;;17.00;99.90;;;;;;5024108;28;20042;-64
2022/09/08 06:28:29;;;;;;;60.63;50.70;;;17.00;99.90;;;;;;5024691;28;20061;-64
2022/09/08 06:30:55;;;;;;;56.20;50.05;;;17.00;99.90;;;;;;5024179;28;20055;-65
2022/09/08 06:33:30;;;;;;;58.35;52.10;;;17.00;99.90;;;;;;5024482;28;20048;-64
2022/09/08 06:35:59;;;;;;;56.45;50.35;;;17.10;99.90;;;;;;5024331;28;20132;-64
2022/09/08 06:38:47;;;;;;;55.30;49.35;;;17.10;99.90;;;;;;5023996;28;20042;-64
2022/09/08 06:41:42;;;;;;;55.60;49.72;;;17.10;99.90;;;;;;5024459;28;20052;-64
2022/09/08 06:44:16;;;;;;;54.58;49.08;;;17.00;99.90;;;;;;5024342;28;20130;-64
2022/09/08 06:46:44;;;;;;;57.20;51.30;;;17.10;99.90;;;;;;5020795;28;20542;-64
2022/09/08 06:49:11;;;;;;;53.55;48.05;;;17.10;99.90;;;;;;5024420;28;20084;-64
2022/09/08 06:51:59;;;;;;;53.33;47.65;;;17.10;99.90;;;;;;5023126;28;20723;-64
2022/09/08 06:54:49;;;;;;;48.95;43.88;;;17.10;99.90;;;;;;5024135;28;20034;-64
2022/09/08 06:57:27;;;;;;;51.53;46.17;;;17.10;99.90;;;;;;5024029;28;20053;-65
2022/09/08 07:00:18;;;;;;;53.95;47.58;;;17.20;99.90;;;;;;5023300;28;20197;-63
2022/09/08 07:03:02;;;;;;;54.20;48.50;;;17.30;99.90;;;;;;5028851;28;20049;-64
2022/09/08 07:05:48;;;;;;;49.03;43.75;;;17.20;99.90;;;;;;5034145;28;20128;-64
2022/09/08 07:08:39;;;;;;;54.25;48.53;;;17.10;99.90;;;;;;5035446;28;20044;-64
2022/09/08 07:11:20;;;;;;;57.40;50.80;;;17.10;99.90;;;;;;5032163;28;20041;-64
2022/09/08 07:13:57;;;;;;;58.97;52.80;;;17.00;99.90;;;;;;5032234;28;20053;-64
2022/09/08 07:16:33;;;;;;;60.03;53.45;;;17.00;99.90;;;;;;5030895;28;20475;-63
2022/09/08 07:19:08;;;;;;;62.75;56.03;;;16.90;99.90;;;;;;5027317;28;20408;-63
2022/09/08 07:22:12;;;;;;;61.38;54.47;;;16.90;99.90;;;;;;5023428;28;20042;-62
2022/09/08 07:24:41;;;;;;;63.45;54.70;;;16.90;99.90;;;;;;4962019;28;20043;-64
2022/09/08 07:27:12;;;;;;;64.22;56.92;;;16.80;99.90;;;;;;4945976;28;20146;-64
2022/09/08 07:29:45;;;;;;;62.53;55.72;;;16.90;99.90;;;;;;4993764;28;20053;-63
2022/09/08 07:32:28;;;;;;;64.63;56.30;;;16.90;99.90;;;;;;5022798;28;20042;-64
2022/09/08 07:35:00;;;;;;;62.05;55.35;;;16.90;99.90;;;;;;5023605;28;20041;-64
2022/09/08 07:37:42;;;;;;;64.45;57.42;;;16.80;99.90;;;;;;5023192;28;20515;-63
2022/09/08 07:40:43;;;;;;;66.00;57.70;;;16.80;99.90;;;;;;5022051;28;20049;-65
2022/09/08 07:43:14;;;;;;;62.20;55.42;;;16.80;99.90;;;;;;5041645;28;20045;-64
2022/09/08 07:45:46;;;;;;;65.15;58.08;;;16.80;99.90;;;;;;5043120;28;20045;-65
2022/09/08 07:48:33;;;;;;;61.58;54.28;;;16.80;99.90;;;;;;5042118;28;20067;-64
2022/09/08 07:51:15;;;;;;;61.67;54.55;;;16.80;99.90;;;;;;5043149;28;20059;-65
2022/09/08 07:53:58;;;;;;;61.60;54.90;;;16.90;99.90;;;;;;5041259;28;20052;-66
2022/09/08 07:56:50;;;;;;;64.22;55.30;;;16.90;99.90;;;;;;5042785;28;20132;-64
2022/09/08 07:59:34;;;;;;;61.28;54.70;;;16.90;99.90;;;;;;5042915;28;20045;-65
2022/09/08 08:02:21;;;;;;;60.13;53.63;;;16.90;99.90;;;;;;5041996;28;20381;-63
2022/09/08 08:04:50;;;;;;;64.53;55.00;;;16.90;99.90;;;;;;5041366;28;20053;-64
2022/09/08 08:07:40;;;;;;;62.50;55.53;;;17.00;99.90;;;;;;5038370;28;20737;-65
2022/09/08 08:10:14;;;;;;;62.42;55.67;;;17.00;99.90;;;;;;5022327;28;20153;-64
2022/09/08 08:12:45;;;;;;;;;;;17.00;99.90;;;;;;5023290;28;20561;-66
2022/09/08 08:15:17;;;;;;;61.45;54.78;;;16.80;99.90;;;;;;5022816;28;19921;-66
2022/09/08 08:18:13;;;;;;;60.90;54.35;;;16.90;99.90;;;;;;5021915;28;20139;-66
2022/09/08 08:21:30;;;;;;;58.72;52.35;;;17.00;99.90;;;;;;5022751;28;20439;-65
2022/09/08 08:24:01;;;;;;;62.72;54.08;;;17.00;99.90;;;;;;4980585;28;20089;-63
2022/09/08 08:26:51;;;;;;;59.63;53.00;;;17.00;99.90;;;;;;4980126;28;20512;-64
2022/09/08 08:29:51;;;;;;;65.65;54.90;;;17.00;99.90;;;;;;5010968;28;20064;-64
2022/09/08 08:32:27;;;;;;;68.28;56.83;;;17.00;99.90;;;;;;5016491;28;20061;-65
2022/09/08 08:35:19;;;;;;;67.20;53.40;;;17.10;99.90;;;;;;5022134;28;20057;-64
2022/09/08 08:37:47;;;;;;;62.22;48.83;;;17.10;99.90;;;;;;5014637;28;20451;-64
2022/09/08 08:40:37;;;;;;;57.85;48.72;;;17.10;99.90;;;;;;5021113;28;20451;-65
2022/09/08 08:43:18;;;;;;;57.30;47.75;;;17.20;99.90;;;;;;5016186;28;20126;-64
2022/09/08 08:46:34;;;;;;;56.67;50.42;;;17.20;99.90;;;;;;5022602;28;20412;-65
2022/09/08 08:49:36;;;;;;;56.13;50.08;;;17.20;99.90;;;;;;5006443;28;20107;-65
2022/09/08 08:52:27;;;;;;;56.15;50.25;;;17.30;99.90;;;;;;5021012;28;20085;-65
2022/09/08 08:55:18;;;;;;;54.55;48.70;;;17.40;99.90;;;;;;5022815;28;20049;-64
2022/09/08 08:58:18;;;;;;;54.83;48.85;;;17.40;99.90;;;;;;5020720;28;20950;-64
2022/09/08 09:01:19;;;;;;;53.05;47.45;;;17.50;99.90;;;;;;5008723;28;20061;-63
2022/09/08 09:04:23;;;;;;;52.20;46.95;;;17.70;99.90;;;;;;5024131;28;20049;-64
2022/09/08 09:07:06;;;;;;;48.70;43.72;;;17.70;99.90;;;;;;5001591;28;20212;-64
2022/09/08 09:09:47;;;;;;;48.63;43.55;;;17.70;99.90;;;;;;5023687;28;20127;-66
2022/09/08 09:12:19;;;;;;;50.55;45.22;;;17.60;99.90;;;;;;5025731;28;20476;-67
2022/09/08 09:14:55;;;;;;;48.50;43.38;;;17.60;99.90;;;;;;5025543;28;20374;-68
2022/09/08 09:17:48;;;;;;;50.75;44.25;;;17.60;99.90;;;;;;5025118;28;20413;-69
2022/09/08 09:20:29;;;;;;;48.70;43.58;;;17.60;99.90;;;;;;5025892;28;20055;-69
2022/09/08 09:23:13;;;;;;;48.55;43.38;;;17.70;99.90;;;;;;5025713;28;20060;-67
2022/09/08 09:26:06;;;;;;;48.65;43.53;;;17.60;99.90;;;;;;5025482;28;20051;-69
2022/09/08 09:28:59;;;;;;;43.83;39.38;;;17.80;99.90;;;;;;5025791;28;20087;-68
2022/09/08 09:31:47;;;;;;;43.28;39.00;;;17.70;99.90;;;;;;5023765;28;20042;-73
2022/09/08 09:34:34;;;;;;;38.88;34.80;;;17.80;99.90;;;;;;5025050;28;20056;-74
2022/09/08 09:37:16;;;;;;;39.30;35.25;;;17.90;99.90;;;;;;5025810;28;20045;-74
2022/09/08 09:39:44;;;;;;;42.45;38.40;;;17.90;99.90;;;;;;5024882;28;20743;-74
2022/09/08 09:42:40;;;;;;;39.78;35.65;;;17.90;99.90;;;;;;5024155;28;20132;-74
2022/09/08 09:45:20;;;;;;;39.35;35.35;;;17.90;99.90;;;;;;5024172;28;20033;-74
2022/09/08 09:48:15;;;;;;;39.15;35.33;;;18.00;99.90;;;;;;5024595;28;20049;-74
2022/09/08 09:50:56;;;;;;;38.05;34.25;;;17.90;99.90;;;;;;5009583;28;20054;-74
2022/09/08 09:53:43;;;;;;;38.60;34.78;;;17.90;99.90;;;;;;5025173;28;20121;-74
2022/09/08 09:57:00;;;;;;;38.90;35.05;;;17.90;99.90;;;;;;5025260;28;20076;-75
2022/09/08 09:59:53;;;;;;;33.22;30.02;;;18.10;99.90;;;;;;5015550;28;20068;-74
2022/09/08 10:02:40;;;;;;;33.70;30.30;;;18.10;99.90;;;;;;5023491;28;20068;-74
2022/09/08 10:05:33;;;;;;;32.70;29.45;;;18.30;99.90;;;;;;5023568;28;20045;-75
2022/09/08 10:08:11;;;;;;;31.83;28.63;;;18.30;99.90;;;;;;5032332;28;20050;-73
2022/09/08 10:10:36;;;;;;;31.35;28.25;;;18.40;99.90;;;;;;5027191;28;20153;-70
2022/09/08 10:13:36;;;;;;;28.05;25.30;;;18.40;99.90;;;;;;5039409;28;20123;-74
2022/09/08 10:16:26;;;;;;;29.98;26.88;;;18.40;99.90;;;;;;5028688;28;20080;-75
2022/09/08 10:19:11;;;;;;;28.77;26.05;;;18.30;99.90;;;;;;5024674;28;20053;-76
2022/09/08 10:21:59;;;;;;;28.42;25.67;;;18.20;99.90;;;;;;5042779;28;20049;-76
2022/09/08 10:24:31;;;;;;;29.10;26.25;;;18.10;99.90;;;;;;5043993;28;20074;-75
2022/09/08 10:27:40;;;;;;;26.58;23.90;;;18.00;99.90;;;;;;5044460;28;20048;-74
2022/09/08 10:30:33;;;;;;;29.25;26.45;;;18.00;99.90;;;;;;5042859;28;20056;-74
2022/09/08 10:33:14;;;;;;;27.00;24.40;;;18.00;99.90;;;;;;5044172;28;20442;-71
2022/09/08 10:35:47;;;;;;;28.10;25.33;;;17.90;99.90;;;;;;5043524;28;20135;-71
2022/09/08 10:38:31;;;;;;;28.35;25.42;;;17.90;99.90;;;;;;5044012;28;20041;-65
2022/09/08 10:40:57;;;;;;;28.75;25.83;;;17.80;99.90;;;;;;5043894;28;20052;-58
2022/09/08 10:43:38;;;;;;;26.75;24.10;;;17.80;99.90;;;;;;5041403;28;20376;-65
2022/09/08 10:46:37;;;;;;;26.38;23.58;;;17.80;99.90;;;;;;5043333;28;20099;-72
2022/09/08 10:49:28;;;;;;;25.55;23.08;;;17.90;99.90;;;;;;5043001;28;20044;-71
2022/09/08 10:52:18;;;;;;;28.52;25.80;;;17.90;99.90;;;;;;5024453;28;20111;-70
2022/09/08 10:55:15;;;;;;;35.45;19.83;;;18.00;99.90;;;;;;5023056;28;20053;-65
2022/09/08 10:58:06;;;;;;;103.93;27.48;;;18.00;99.90;;;;;;5022517;28;20056;-67
2022/09/08 11:00:50;;;;;;;29.27;18.30;;;18.00;99.90;;;;;;5030883;28;20052;-74
2022/09/08 11:03:27;;;;;;;30.33;19.35;;;18.00;99.90;;;;;;5031113;28;20643;-75
2022/09/08 11:06:19;;;;;;;25.75;18.35;;;17.90;99.90;;;;;;5017765;28;20085;-65
2022/09/08 11:09:03;;;;;;;30.00;19.80;;;17.90;99.90;;;;;;5035058;28;20042;-62
2022/09/08 11:12:01;;;;;;;21.42;19.33;;;17.90;99.90;;;;;;5039794;28;20049;-63
2022/09/08 11:15:02;;;;;;;23.25;19.15;;;18.00;99.90;;;;;;5034377;28;20529;-58
2022/09/08 11:17:46;;;;;;;22.13;19.83;;;18.00;99.90;;;;;;5002651;28;20359;-58
2022/09/08 11:20:49;;;;;;;21.35;19.10;;;17.90;99.90;;;;;;5041957;28;20053;-58
2022/09/08 11:23:36;;;;;;;16.25;14.55;;;17.90;99.90;;;;;;5043879;28;20429;-58
2022/09/08 11:26:01;;;;;;;12.65;11.40;;;17.90;99.90;;;;;;5043900;28;20032;-60
2022/09/08 11:28:48;;;;;;;13.85;10.63;;;17.80;99.90;;;;;;5043598;28;20510;-59
2022/09/08 11:31:33;;;;;;;14.27;11.13;;;17.70;99.90;;;;;;5042736;28;20052;-58
2022/09/08 11:34:32;;;;;;;15.13;11.18;;;17.60;99.90;;;;;;5043446;28;20049;-58
2022/09/08 11:37:12;;;;;;;14.10;10.07;;;17.50;99.90;;;;;;5037907;28;20403;-59
2022/09/08 11:39:52;;;;;;;11.63;9.60;;;17.60;99.90;;;;;;5042638;28;20052;-60
2022/09/08 11:42:33;;;;;;;12.07;9.65;;;17.60;99.90;;;;;;5043516;28;20295;-60
2022/09/08 11:45:23;;;;;;;11.10;9.20;;;17.60;99.90;;;;;;5043289;28;20049;-59
2022/09/08 11:48:14;;;;;;;10.82;9.07;;;17.50;99.90;;;;;;5043864;28;20422;-58
2022/09/08 11:51:24;;;;;;;10.02;8.93;;;17.50;99.90;;;;;;5042947;28;20427;-58
2022/09/08 11:54:11;;;;;;;8.63;7.65;;;17.50;99.90;;;;;;5039907;28;20462;-60
2022/09/08 11:57:00;;;;;;;8.70;7.65;;;17.40;99.90;;;;;;5042749;28;20053;-59
2022/09/08 11:59:38;;;;;;;8.75;7.13;;;17.30;99.90;;;;;;5042943;28;20465;-58
2022/09/08 12:02:24;;;;;;;7.63;6.93;;;17.40;99.90;;;;;;5042140;28;20098;-61
2022/09/08 12:05:17;;;;;;;8.30;6.88;;;17.40;99.90;;;;;;5040843;28;20081;-60
2022/09/08 12:08:11;;;;;;;9.00;7.65;;;17.40;99.90;;;;;;5033721;28;20052;-59
2022/09/08 12:11:17;;;;;;;9.70;5.65;;;17.40;99.90;;;;;;5042784;28;20052;-61
2022/09/08 12:14:24;;;;;;;7.95;6.72;;;17.40;99.90;;;;;;5031147;28;20065;-61
2022/09/08 12:17:05;;;;;;;9.57;7.50;;;17.50;99.90;;;;;;5042667;28;20080;-63
2022/09/08 12:19:36;;;;;;;7.97;6.47;;;17.60;99.90;;;;;;5041319;28;20136;-68
2022/09/08 12:22:51;;;;;;;7.80;6.05;;;17.50;99.90;;;;;;5040935;28;20049;-66
2022/09/08 12:25:50;;;;;;;5.43;4.65;;;17.40;99.90;;;;;;5013983;28;20053;-65
2022/09/08 12:28:25;;;;;;;7.40;3.80;;;17.40;99.90;;;;;;5032887;28;20064;-67
2022/09/08 12:31:13;;;;;;;5.22;3.67;;;17.20;99.90;;;;;;5042719;28;20076;-68
2022/09/08 12:34:03;;;;;;;4.30;3.40;;;17.20;99.90;;;;;;5042325;28;20037;-67
2022/09/08 12:36:44;;;;;;;5.70;2.92;;;17.20;99.90;;;;;;5042487;28;20515;-67
2022/09/08 12:39:32;;;;;;;4.70;3.35;;;17.20;99.90;;;;;;5042868;28;20045;-67
2022/09/08 12:42:35;;;;;;;4.28;2.30;;;17.20;99.90;;;;;;5040723;28;20120;-61
2022/09/08 12:45:29;;;;;;;5.38;1.80;;;17.20;99.90;;;;;;5045119;28;20128;-58
2022/09/08 12:48:02;;;;;;;6.15;2.63;;;17.10;99.90;;;;;;5046438;28;20056;-70
2022/09/08 12:50:46;;;;;;;4.43;2.17;;;17.20;99.90;;;;;;5046023;28;20448;-60
2022/09/08 12:53:29;;;;;;;2.90;1.73;;;17.20;99.90;;;;;;5046271;28;20404;-71
2022/09/08 12:56:05;;;;;;;3.33;2.22;;;17.10;99.90;;;;;;5045884;28;20530;-69
2022/09/08 12:58:44;;;;;;;4.50;1.92;;;17.00;99.90;;;;;;5046259;28;20045;-72
2022/09/08 13:01:39;;;;;;;3.78;1.90;;;17.00;99.90;;;;;;5045154;28;20432;-75
2022/09/08 13:04:27;;;;;;;3.65;2.20;;;17.00;99.90;;;;;;5046582;28;20041;-67
2022/09/08 13:07:10;;;;;;;3.78;2.20;;;17.10;99.90;;;;;;5038737;28;20107;-66
2022/09/08 13:09:56;;;;;;;3.13;2.25;;;17.10;99.90;;;;;;5025725;28;20096;-67
2022/09/08 13:12:39;;;;;;;3.03;2.13;;;17.20;99.90;;;;;;5026885;28;20049;-67
2022/09/08 13:15:04;;;;;;;4.78;2.47;;;17.20;99.90;;;;;;5030127;28;20049;-67
2022/09/08 13:17:42;;;;;;;3.95;2.58;;;17.20;99.90;;;;;;5030895;28;20045;-67
2022/09/08 13:20:35;;;;;;;3.65;2.30;;;17.30;99.90;;;;;;5031242;28;20046;-67
2022/09/08 13:23:08;;;;;;;4.57;2.60;;;17.30;99.90;;;;;;5032998;28;20045;-68
2022/09/08 13:25:43;;;;;;;4.47;3.03;;;17.40;99.90;;;;;;5030784;28;20038;-69